»·PEaware :: SWA300 KPHX-KABQ

SWA300 :: KPHX-KABQ

FLIGHT INFORMATION

Flight Status: Arrived
Operator:
Southwest Airlines
More flights by this operator :: More flights under this callsign
Pilot: Camron S. (27302)
Aircraft: BOEING 737-800
(B738)
More flights by this aircraft type
Origin: KPHX Phoenix Sky Harbor Intl
United States
Destination: KABQ Albuquerque Intl Sunport
United States
More flights between these airports :: More routes between these airports
Route: FORPE1 FORPE CABNO KRKEE3
File this flight plan on PilotEdge
Remarks: RMK / SIMBRIEF
Altitude:
(Current/Filed)
35,000ft
Speed:
(Current/Filed)
443kts
Departed: 08-Aug-20 09:01 PM
Arrived: 08-Aug-20 09:54 PM
Distance/Time
Traveled:
285nm/0:53
Distance/Time
To Go:
Arrived

Flight Plot

Page will automatically refresh every two minutes.

Flight plan parsing failed; only flown route is shown


Map Options




Map Legend


Flown Route
Filed Route
Departure Airport
Arrival Airport
Navaid (VOR, NDB)
Fix

Horizontal Profiles

Position Reports

Time Latitude Longitude Heading Altitude Ground
Speed
08-Aug-20 20:38 33.434061 -111.996208 285 1126ft 0kts
08-Aug-20 20:39 33.434061 -111.996208 285 1126ft 0kts
08-Aug-20 20:40 33.434061 -111.996208 285 1126ft 0kts
08-Aug-20 20:41 33.434061 -111.996208 285 1126ft 0kts
08-Aug-20 20:42 33.434061 -111.996208 285 1126ft 0kts
08-Aug-20 20:42 33.434061 -111.996208 285 1125ft 0kts
08-Aug-20 20:44 33.434061 -111.996208 285 1125ft 0kts
08-Aug-20 20:44 33.434061 -111.996208 285 1125ft 0kts
08-Aug-20 20:45 33.434061 -111.996208 285 1125ft 0kts
08-Aug-20 20:47 33.434061 -111.996208 285 1125ft 0kts
08-Aug-20 20:47 33.434061 -111.996208 285 1125ft 0kts
08-Aug-20 20:48 33.434061 -111.996208 285 1125ft 0kts
08-Aug-20 20:49 33.434061 -111.996208 285 1125ft 0kts
08-Aug-20 20:50 33.434061 -111.996208 285 1125ft 0kts
08-Aug-20 20:51 33.434061 -111.996208 285 1125ft 0kts
08-Aug-20 20:52 33.434061 -111.996208 285 1125ft 0kts
08-Aug-20 20:53 33.434030 -111.996077 285 1125ft 0kts
08-Aug-20 20:54 33.434277 -111.995738 178 1125ft 1kts
08-Aug-20 20:55 33.434287 -111.995738 178 1125ft 0kts
08-Aug-20 20:56 33.434241 -111.995738 181 1125ft 2kts
08-Aug-20 20:57 33.433239 -111.995741 172 1125ft 6kts
08-Aug-20 20:58 33.432131 -111.993870 95 1129ft 4kts
08-Aug-20 20:59 33.431065 -111.994664 267 1129ft 18kts
08-Aug-20 21:00 33.431419 -112.039248 270 2430ft 181kts
08-Aug-20 21:01 33.433874 -112.106221 273 4801ft 221kts
08-Aug-20 21:02 33.451634 -112.186994 321 7172ft 279kts
08-Aug-20 21:03 33.526192 -112.195154 6 8008ft 279kts
08-Aug-20 21:04 33.606323 -112.168375 27 10532ft 323kts
08-Aug-20 21:05 33.679392 -112.089915 46 12640ft 369kts
08-Aug-20 21:06 33.739023 -111.988332 76 15255ft 388kts
08-Aug-20 21:07 33.737630 -111.856896 96 17673ft 404kts
08-Aug-20 21:08 33.726330 -111.719784 96 19921ft 420kts
08-Aug-20 21:09 33.714440 -111.577982 96 22004ft 435kts
08-Aug-20 21:10 33.702006 -111.431675 96 23926ft 449kts
08-Aug-20 21:11 33.696966 -111.278814 83 25745ft 464kts
08-Aug-20 21:12 33.735991 -111.133062 66 27433ft 475kts
08-Aug-20 21:13 33.788622 -110.985209 66 29105ft 485kts
08-Aug-20 21:14 33.841704 -110.835832 66 31053ft 484kts
08-Aug-20 21:15 33.894189 -110.687547 66 32925ft 481kts
08-Aug-20 21:16 33.946198 -110.539949 66 34678ft 477kts
08-Aug-20 21:17 33.998083 -110.392035 66 35335ft 484kts
08-Aug-20 21:18 34.042944 -110.263700 67 35338ft 478kts
08-Aug-20 21:19 34.086865 -110.110360 72 35338ft 480kts
08-Aug-20 21:20 34.124863 -109.968326 72 35338ft 480kts
08-Aug-20 21:21 34.163481 -109.823612 72 35345ft 480kts
08-Aug-20 21:22 34.204654 -109.668596 72 35349ft 480kts
08-Aug-20 21:23 34.245411 -109.514310 72 35364ft 480kts
08-Aug-20 21:24 34.286007 -109.359754 72 35352ft 480kts
08-Aug-20 21:25 34.323251 -109.217378 72 35322ft 480kts
08-Aug-20 21:26 34.363004 -109.064458 72 35291ft 478kts
08-Aug-20 21:27 34.402808 -108.910381 72 35273ft 476kts
08-Aug-20 21:28 34.442281 -108.756675 72 35329ft 477kts
08-Aug-20 21:29 34.481772 -108.601999 72 35308ft 477kts
08-Aug-20 21:30 34.515150 -108.442555 78 32175ft 491kts
08-Aug-20 21:31 34.541709 -108.286917 79 29087ft 480kts
08-Aug-20 21:32 34.568382 -108.131273 79 26448ft 460kts
08-Aug-20 21:33 34.593698 -107.982000 79 23841ft 441kts
08-Aug-20 21:34 34.619794 -107.839302 73 21469ft 419kts
08-Aug-20 21:35 34.662339 -107.715813 62 21367ft 394kts
08-Aug-20 21:36 34.712262 -107.599198 62 20046ft 384kts
08-Aug-20 21:37 34.761045 -107.485509 62 17986ft 375kts
08-Aug-20 21:38 34.809000 -107.373532 62 15660ft 371kts
08-Aug-20 21:39 34.855249 -107.264791 63 14021ft 348kts
08-Aug-20 21:40 34.896250 -107.160441 73 14006ft 322kts
08-Aug-20 21:41 34.911782 -107.052711 82 13941ft 320kts
08-Aug-20 21:42 34.961663 -106.968127 44 13474ft 323kts
08-Aug-20 21:43 35.023806 -106.890513 44 11895ft 316kts
08-Aug-20 21:44 35.080731 -106.819378 44 10434ft 304kts
08-Aug-20 21:45 35.137947 -106.747838 44 9413ft 283kts
08-Aug-20 21:46 35.166034 -106.673061 105 8977ft 215kts
08-Aug-20 21:47 35.138292 -106.613143 121 8772ft 199kts
08-Aug-20 21:48 35.109524 -106.553838 122 7814ft 202kts
08-Aug-20 21:49 35.075811 -106.508274 167 6909ft 166kts
08-Aug-20 21:50 35.044982 -106.533886 262 6002ft 152kts
08-Aug-20 21:51 35.044130 -106.584038 270 5345ft 132kts
08-Aug-20 21:52 35.044249 -106.607683 270 5324ft 47kts
08-Aug-20 21:53 35.045813 -106.611435 270 5323ft 11kts
08-Aug-20 21:54 35.047220 -106.613426 316 5323ft 5kts
08-Aug-20 21:55 35.047353 -106.613885 273 5323ft 0kts

Navigation Log

Ident Type
Flight plan parsing failed, navigation log unavailable